<?xml version="1.0" encoding="UTF-8" standalone="no" ?>
<gpx xmlns="http://www.topografix.com/GPX/1/1" xmlns:xsi="http://www.w3.org/2001/XMLSchema-instance" xsi:schemaLocation="http://www.topografix.com/GPX/1/1 http://www.topografix.com/GPX/1/1/gpx.xsd" version="1.1" creator="VisuGPX - https://www.visugpx.com">
  <metadata>
    <name>Pont d'Espagne - lac de Gaube</name>
    <desc><![CDATA[2017-08 - Pont d'Espagne - lac de Gaube

[b]album[/b] : [url]https://goo.gl/photos/zEZhVp6gue4dbeXv8[/url]
[img]https://2.bp.blogspot.com/-dKlx4Cr_CKQ/WZG9Mu8hDvI/AAAAAAAAXP0/YrBKcmwXLlIhprfPwExiTpYP6F2G4SszgCLcBGAs/s1600/2017-08-11_pont-espagne_lac-gaube_i.JPG[/img]
[b]Idées de randonnées dans la même région[/b]
Parcours : [url]https://www.visugpx.com/membres/24856/montagne/pyrenees/[/url]
Photos : [url]https://jcvertygo.blogspot.com/p/pyrenees.html[/url]]]></desc>
  </metadata>
  <trk>
    <name><![CDATA[Pont d'Espagne - lac de Gaube_1]]></name>
    <trkseg>
      <trkpt lat="42.85062" lon="-0.13881">
        <ele>1493.8</ele>
        <time>2017-08-11T10:27:00Z</time>
      </trkpt>
      <trkpt lat="42.85056" lon="-0.13883">
        <ele>1493.8</ele>
        <time>2017-08-11T10:27:00Z</time>
      </trkpt>
      <trkpt lat="42.8506" lon="-0.13887">
        <ele>1495.6951159045</ele>
        <time>2017-08-11T10:27:14Z</time>
      </trkpt>
      <trkpt lat="42.85063" lon="-0.1389">
        <ele>1495.6951159045</ele>
        <time>2017-08-11T10:27:14Z</time>
      </trkpt>
      <trkpt lat="42.8506" lon="-0.139">
        <ele>1503.4434198618</ele>
        <time>2017-08-11T10:27:39Z</time>
      </trkpt>
      <trkpt lat="42.8506" lon="-0.13908">
        <ele>1503.4434198618</ele>
        <time>2017-08-11T10:27:39Z</time>
      </trkpt>
      <trkpt lat="42.85059" lon="-0.13911">
        <ele>1503.4434198618</ele>
        <time>2017-08-11T10:27:50Z</time>
      </trkpt>
      <trkpt lat="42.85054" lon="-0.13907">
        <ele>1511.7702163753</ele>
        <time>2017-08-11T10:27:57Z</time>
      </trkpt>
      <trkpt lat="42.85049" lon="-0.13899">
        <ele>1511.7702163753</ele>
        <time>2017-08-11T10:28:18Z</time>
      </trkpt>
      <trkpt lat="42.85045" lon="-0.13898">
        <ele>1520.5342094125</ele>
        <time>2017-08-11T10:28:18Z</time>
      </trkpt>
      <trkpt lat="42.85038" lon="-0.1389">
        <ele>1529.2601336801</ele>
        <time>2017-08-11T10:28:55Z</time>
      </trkpt>
      <trkpt lat="42.85045" lon="-0.139">
        <ele>1537.6674560911</ele>
        <time>2017-08-11T10:29:19Z</time>
      </trkpt>
      <trkpt lat="42.85039" lon="-0.13908">
        <ele>1537.6674560911</ele>
        <time>2017-08-11T10:29:44Z</time>
      </trkpt>
      <trkpt lat="42.85028" lon="-0.13915">
        <ele>1545.1488959727</ele>
        <time>2017-08-11T10:30:00Z</time>
      </trkpt>
      <trkpt lat="42.8501" lon="-0.13894">
        <ele>1552.0311445115</ele>
        <time>2017-08-11T10:30:55Z</time>
      </trkpt>
      <trkpt lat="42.85009" lon="-0.13891">
        <ele>1552.0311445115</ele>
        <time>2017-08-11T10:31:01Z</time>
      </trkpt>
      <trkpt lat="42.8501" lon="-0.13885">
        <ele>1552.0311445115</ele>
        <time>2017-08-11T10:31:14Z</time>
      </trkpt>
      <trkpt lat="42.85009" lon="-0.13881">
        <ele>1557.8216788055</ele>
        <time>2017-08-11T10:31:14Z</time>
      </trkpt>
      <trkpt lat="42.85006" lon="-0.13879">
        <ele>1557.8216788055</ele>
        <time>2017-08-11T10:31:18Z</time>
      </trkpt>
      <trkpt lat="42.85009" lon="-0.13853">
        <ele>1562.8674027852</ele>
        <time>2017-08-11T10:31:54Z</time>
      </trkpt>
      <trkpt lat="42.85008" lon="-0.13849">
        <ele>1562.8674027852</ele>
        <time>2017-08-11T10:31:54Z</time>
      </trkpt>
      <trkpt lat="42.85014" lon="-0.13837">
        <ele>1567.3073244017</ele>
        <time>2017-08-11T10:32:23Z</time>
      </trkpt>
      <trkpt lat="42.85018" lon="-0.13843">
        <ele>1567.3073244017</ele>
        <time>2017-08-11T10:32:44Z</time>
      </trkpt>
      <trkpt lat="42.84991" lon="-0.13863">
        <ele>1573.0759685349</ele>
        <time>2017-08-11T10:34:20Z</time>
      </trkpt>
      <trkpt lat="42.84982" lon="-0.13836">
        <ele>1578.4056606707</ele>
        <time>2017-08-11T10:35:09Z</time>
      </trkpt>
      <trkpt lat="42.84984" lon="-0.13834">
        <ele>1578.4056606707</ele>
        <time>2017-08-11T10:35:09Z</time>
      </trkpt>
      <trkpt lat="42.84988" lon="-0.13834">
        <ele>1578.4056606707</ele>
        <time>2017-08-11T10:35:26Z</time>
      </trkpt>
      <trkpt lat="42.84986" lon="-0.13835">
        <ele>1583.0053872787</ele>
        <time>2017-08-11T10:35:26Z</time>
      </trkpt>
      <trkpt lat="42.8498" lon="-0.1384">
        <ele>1583.0053872787</ele>
        <time>2017-08-11T10:35:43Z</time>
      </trkpt>
      <trkpt lat="42.8498" lon="-0.13845">
        <ele>1586.6383263775</ele>
        <time>2017-08-11T10:35:54Z</time>
      </trkpt>
      <trkpt lat="42.84978" lon="-0.13848">
        <ele>1586.6383263775</ele>
        <time>2017-08-11T10:36:19Z</time>
      </trkpt>
      <trkpt lat="42.84964" lon="-0.13854">
        <ele>1590.0243587181</ele>
        <time>2017-08-11T10:37:13Z</time>
      </trkpt>
      <trkpt lat="42.8494" lon="-0.13865">
        <ele>1592.9865343318</ele>
        <time>2017-08-11T10:38:08Z</time>
      </trkpt>
      <trkpt lat="42.84916" lon="-0.13873">
        <ele>1596.073539797</ele>
        <time>2017-08-11T10:39:02Z</time>
      </trkpt>
      <trkpt lat="42.84907" lon="-0.13878">
        <ele>1598.6268578054</ele>
        <time>2017-08-11T10:39:54Z</time>
      </trkpt>
      <trkpt lat="42.84894" lon="-0.13879">
        <ele>1601.4309290369</ele>
        <time>2017-08-11T10:40:25Z</time>
      </trkpt>
      <trkpt lat="42.8488" lon="-0.1388">
        <ele>1603.6621384148</ele>
        <time>2017-08-11T10:40:47Z</time>
      </trkpt>
      <trkpt lat="42.84877" lon="-0.13877">
        <ele>1603.6621384148</ele>
        <time>2017-08-11T10:40:52Z</time>
      </trkpt>
      <trkpt lat="42.84876" lon="-0.13876">
        <ele>1603.6621384148</ele>
        <time>2017-08-11T10:41:03Z</time>
      </trkpt>
      <trkpt lat="42.84862" lon="-0.13869">
        <ele>1606.1813354031</ele>
        <time>2017-08-11T10:42:24Z</time>
      </trkpt>
      <trkpt lat="42.84864" lon="-0.1387">
        <ele>1606.1813354031</ele>
        <time>2017-08-11T10:42:40Z</time>
      </trkpt>
      <trkpt lat="42.84854" lon="-0.13869">
        <ele>1608.2938351398</ele>
        <time>2017-08-11T10:42:40Z</time>
      </trkpt>
      <trkpt lat="42.84833" lon="-0.13861">
        <ele>1610.3192889194</ele>
        <time>2017-08-11T10:43:01Z</time>
      </trkpt>
      <trkpt lat="42.84832" lon="-0.1386">
        <ele>1610.3192889194</ele>
        <time>2017-08-11T10:43:02Z</time>
      </trkpt>
      <trkpt lat="42.84828" lon="-0.13857">
        <ele>1610.3192889194</ele>
        <time>2017-08-11T10:43:07Z</time>
      </trkpt>
      <trkpt lat="42.84826" lon="-0.13855">
        <ele>1610.3192889194</ele>
        <time>2017-08-11T10:43:12Z</time>
      </trkpt>
      <trkpt lat="42.84824" lon="-0.13852">
        <ele>1612.5339654022</ele>
        <time>2017-08-11T10:43:17Z</time>
      </trkpt>
      <trkpt lat="42.84823" lon="-0.13852">
        <ele>1612.5339654022</ele>
        <time>2017-08-11T10:43:22Z</time>
      </trkpt>
      <trkpt lat="42.84821" lon="-0.13852">
        <ele>1612.5339654022</ele>
        <time>2017-08-11T10:43:27Z</time>
      </trkpt>
      <trkpt lat="42.84821" lon="-0.13851">
        <ele>1612.5339654022</ele>
        <time>2017-08-11T10:43:32Z</time>
      </trkpt>
      <trkpt lat="42.84822" lon="-0.13848">
        <ele>1612.5339654022</ele>
        <time>2017-08-11T10:43:42Z</time>
      </trkpt>
      <trkpt lat="42.84805" lon="-0.13847">
        <ele>1615.5093458117</ele>
        <time>2017-08-11T10:44:47Z</time>
      </trkpt>
      <trkpt lat="42.84802" lon="-0.13847">
        <ele>1615.5093458117</ele>
        <time>2017-08-11T10:44:47Z</time>
      </trkpt>
      <trkpt lat="42.84786" lon="-0.13849">
        <ele>1618.3694264975</ele>
        <time>2017-08-11T10:45:12Z</time>
      </trkpt>
      <trkpt lat="42.84769" lon="-0.13842">
        <ele>1621.1226665792</ele>
        <time>2017-08-11T10:45:51Z</time>
      </trkpt>
      <trkpt lat="42.84758" lon="-0.13841">
        <ele>1623.4250323176</ele>
        <time>2017-08-11T10:46:21Z</time>
      </trkpt>
      <trkpt lat="42.84752" lon="-0.13836">
        <ele>1623.4250323176</ele>
        <time>2017-08-11T10:46:21Z</time>
      </trkpt>
      <trkpt lat="42.8473" lon="-0.1385">
        <ele>1625.6745554008</ele>
        <time>2017-08-11T10:46:56Z</time>
      </trkpt>
      <trkpt lat="42.84711" lon="-0.13852">
        <ele>1627.5524995404</ele>
        <time>2017-08-11T10:47:10Z</time>
      </trkpt>
      <trkpt lat="42.84692" lon="-0.13852">
        <ele>1629.1821186412</ele>
        <time>2017-08-11T10:47:40Z</time>
      </trkpt>
      <trkpt lat="42.84681" lon="-0.13844">
        <ele>1630.4691850448</ele>
        <time>2017-08-11T10:48:03Z</time>
      </trkpt>
      <trkpt lat="42.84681" lon="-0.13843">
        <ele>1630.4691850448</ele>
        <time>2017-08-11T10:48:03Z</time>
      </trkpt>
      <trkpt lat="42.84678" lon="-0.13843">
        <ele>1630.4691850448</ele>
        <time>2017-08-11T10:48:52Z</time>
      </trkpt>
      <trkpt lat="42.84669" lon="-0.13849">
        <ele>1631.7298978775</ele>
        <time>2017-08-11T10:49:09Z</time>
      </trkpt>
      <trkpt lat="42.84667" lon="-0.13849">
        <ele>1631.7298978775</ele>
        <time>2017-08-11T10:49:12Z</time>
      </trkpt>
      <trkpt lat="42.84659" lon="-0.13845">
        <ele>1632.7175059236</ele>
        <time>2017-08-11T10:49:31Z</time>
      </trkpt>
      <trkpt lat="42.84664" lon="-0.13845">
        <ele>1632.7175059236</ele>
        <time>2017-08-11T10:50:00Z</time>
      </trkpt>
      <trkpt lat="42.84634" lon="-0.13858">
        <ele>1634.3791307043</ele>
        <time>2017-08-11T10:51:53Z</time>
      </trkpt>
      <trkpt lat="42.84617" lon="-0.13865">
        <ele>1635.708261278</ele>
        <time>2017-08-11T10:52:10Z</time>
      </trkpt>
      <trkpt lat="42.84616" lon="-0.13865">
        <ele>1635.708261278</ele>
        <time>2017-08-11T10:52:10Z</time>
      </trkpt>
      <trkpt lat="42.84596" lon="-0.13859">
        <ele>1636.8033932156</ele>
        <time>2017-08-11T10:52:52Z</time>
      </trkpt>
      <trkpt lat="42.84594" lon="-0.13857">
        <ele>1636.8033932156</ele>
        <time>2017-08-11T10:53:12Z</time>
      </trkpt>
      <trkpt lat="42.84585" lon="-0.1386">
        <ele>1637.8595748403</ele>
        <time>2017-08-11T10:53:29Z</time>
      </trkpt>
      <trkpt lat="42.84585" lon="-0.13863">
        <ele>1637.8595748403</ele>
        <time>2017-08-11T10:53:32Z</time>
      </trkpt>
      <trkpt lat="42.8459" lon="-0.13857">
        <ele>1637.8595748403</ele>
        <time>2017-08-11T10:54:25Z</time>
      </trkpt>
      <trkpt lat="42.84588" lon="-0.13853">
        <ele>1639.0345781304</ele>
        <time>2017-08-11T10:54:25Z</time>
      </trkpt>
      <trkpt lat="42.84585" lon="-0.13859">
        <ele>1639.0345781304</ele>
        <time>2017-08-11T10:54:42Z</time>
      </trkpt>
      <trkpt lat="42.84568" lon="-0.13862">
        <ele>1640.3340074931</ele>
        <time>2017-08-11T10:55:49Z</time>
      </trkpt>
      <trkpt lat="42.84555" lon="-0.13871">
        <ele>1641.3987916436</ele>
        <time>2017-08-11T10:55:49Z</time>
      </trkpt>
      <trkpt lat="42.84548" lon="-0.13863">
        <ele>1641.3987916436</ele>
        <time>2017-08-11T10:56:11Z</time>
      </trkpt>
      <trkpt lat="42.84508" lon="-0.13887">
        <ele>1643.0184342918</ele>
        <time>2017-08-11T10:57:08Z</time>
      </trkpt>
      <trkpt lat="42.84507" lon="-0.13887">
        <ele>1643.0184342918</ele>
        <time>2017-08-11T10:57:08Z</time>
      </trkpt>
      <trkpt lat="42.84496" lon="-0.13892">
        <ele>1644.5513185181</ele>
        <time>2017-08-11T10:57:28Z</time>
      </trkpt>
      <trkpt lat="42.84492" lon="-0.13889">
        <ele>1644.5513185181</ele>
        <time>2017-08-11T10:57:32Z</time>
      </trkpt>
      <trkpt lat="42.84488" lon="-0.13888">
        <ele>1644.5513185181</ele>
        <time>2017-08-11T10:57:37Z</time>
      </trkpt>
      <trkpt lat="42.84477" lon="-0.13888">
        <ele>1645.8505154082</ele>
        <time>2017-08-11T10:58:00Z</time>
      </trkpt>
      <trkpt lat="42.84467" lon="-0.13889">
        <ele>1647.0018679614</ele>
        <time>2017-08-11T10:58:08Z</time>
      </trkpt>
      <trkpt lat="42.84463" lon="-0.13888">
        <ele>1647.0018679614</ele>
        <time>2017-08-11T10:58:08Z</time>
      </trkpt>
      <trkpt lat="42.84462" lon="-0.1389">
        <ele>1647.0018679614</ele>
        <time>2017-08-11T10:58:27Z</time>
      </trkpt>
      <trkpt lat="42.84434" lon="-0.13889">
        <ele>1648.3407628314</ele>
        <time>2017-08-11T10:59:08Z</time>
      </trkpt>
      <trkpt lat="42.8442" lon="-0.1388">
        <ele>1649.7147287112</ele>
        <time>2017-08-11T10:59:30Z</time>
      </trkpt>
      <trkpt lat="42.84415" lon="-0.13874">
        <ele>1649.7147287112</ele>
        <time>2017-08-11T10:59:36Z</time>
      </trkpt>
      <trkpt lat="42.84412" lon="-0.13874">
        <ele>1651.0554714088</ele>
        <time>2017-08-11T10:59:51Z</time>
      </trkpt>
      <trkpt lat="42.84402" lon="-0.13872">
        <ele>1652.3591368967</ele>
        <time>2017-08-11T11:00:02Z</time>
      </trkpt>
      <trkpt lat="42.84356" lon="-0.13878">
        <ele>1654.2101997453</ele>
        <time>2017-08-11T11:01:36Z</time>
      </trkpt>
      <trkpt lat="42.84355" lon="-0.13877">
        <ele>1654.2101997453</ele>
        <time>2017-08-11T11:01:37Z</time>
      </trkpt>
      <trkpt lat="42.84344" lon="-0.13876">
        <ele>1655.8336115704</ele>
        <time>2017-08-11T11:01:57Z</time>
      </trkpt>
      <trkpt lat="42.84328" lon="-0.13878">
        <ele>1657.5545979877</ele>
        <time>2017-08-11T11:02:13Z</time>
      </trkpt>
      <trkpt lat="42.84327" lon="-0.13878">
        <ele>1657.5545979877</ele>
        <time>2017-08-11T11:02:14Z</time>
      </trkpt>
      <trkpt lat="42.84315" lon="-0.13875">
        <ele>1659.1595462171</ele>
        <time>2017-08-11T11:02:39Z</time>
      </trkpt>
      <trkpt lat="42.84313" lon="-0.13876">
        <ele>1659.1595462171</ele>
        <time>2017-08-11T11:02:39Z</time>
      </trkpt>
      <trkpt lat="42.843" lon="-0.13876">
        <ele>1660.662811983</ele>
        <time>2017-08-11T11:02:57Z</time>
      </trkpt>
      <trkpt lat="42.84264" lon="-0.13872">
        <ele>1662.4389991461</ele>
        <time>2017-08-11T11:03:47Z</time>
      </trkpt>
      <trkpt lat="42.8426" lon="-0.13877">
        <ele>1662.4389991461</ele>
        <time>2017-08-11T11:04:12Z</time>
      </trkpt>
      <trkpt lat="42.84256" lon="-0.13879">
        <ele>1663.9442146011</ele>
        <time>2017-08-11T11:04:12Z</time>
      </trkpt>
      <trkpt lat="42.84249" lon="-0.13879">
        <ele>1663.9442146011</ele>
        <time>2017-08-11T11:04:29Z</time>
      </trkpt>
      <trkpt lat="42.8425" lon="-0.1388">
        <ele>1663.9442146011</ele>
        <time>2017-08-11T11:04:39Z</time>
      </trkpt>
      <trkpt lat="42.84247" lon="-0.13889">
        <ele>1665.4449715937</ele>
        <time>2017-08-11T11:06:02Z</time>
      </trkpt>
      <trkpt lat="42.84243" lon="-0.13901">
        <ele>1666.7215274542</ele>
        <time>2017-08-11T11:06:24Z</time>
      </trkpt>
      <trkpt lat="42.84233" lon="-0.13914">
        <ele>1667.856732889</ele>
        <time>2017-08-11T11:06:33Z</time>
      </trkpt>
      <trkpt lat="42.84226" lon="-0.13909">
        <ele>1667.856732889</ele>
        <time>2017-08-11T11:07:20Z</time>
      </trkpt>
      <trkpt lat="42.84212" lon="-0.13912">
        <ele>1668.9267170388</ele>
        <time>2017-08-11T11:07:22Z</time>
      </trkpt>
      <trkpt lat="42.84191" lon="-0.13906">
        <ele>1669.8526058359</ele>
        <time>2017-08-11T11:07:52Z</time>
      </trkpt>
      <trkpt lat="42.84188" lon="-0.13905">
        <ele>1669.8526058359</ele>
        <time>2017-08-11T11:07:54Z</time>
      </trkpt>
      <trkpt lat="42.84182" lon="-0.13902">
        <ele>1670.5771877127</ele>
        <time>2017-08-11T11:08:14Z</time>
      </trkpt>
      <trkpt lat="42.84173" lon="-0.13904">
        <ele>1671.1518822327</ele>
        <time>2017-08-11T11:08:14Z</time>
      </trkpt>
      <trkpt lat="42.84169" lon="-0.13902">
        <ele>1671.1518822327</ele>
        <time>2017-08-11T11:08:21Z</time>
      </trkpt>
      <trkpt lat="42.8416" lon="-0.13895">
        <ele>1671.7124548987</ele>
        <time>2017-08-11T11:08:50Z</time>
      </trkpt>
      <trkpt lat="42.84158" lon="-0.1389">
        <ele>1671.7124548987</ele>
        <time>2017-08-11T11:09:00Z</time>
      </trkpt>
      <trkpt lat="42.8415" lon="-0.13888">
        <ele>1672.1919052087</ele>
        <time>2017-08-11T11:09:05Z</time>
      </trkpt>
      <trkpt lat="42.84141" lon="-0.13886">
        <ele>1672.1919052087</ele>
        <time>2017-08-11T11:09:31Z</time>
      </trkpt>
      <trkpt lat="42.8413" lon="-0.13885">
        <ele>1672.6168765262</ele>
        <time>2017-08-11T11:09:47Z</time>
      </trkpt>
      <trkpt lat="42.8413" lon="-0.13885">
        <ele>1672.6168765262</ele>
        <time>2017-08-11T11:09:47Z</time>
      </trkpt>
      <trkpt lat="42.84125" lon="-0.13878">
        <ele>1672.6168765262</ele>
        <time>2017-08-11T11:09:57Z</time>
      </trkpt>
      <trkpt lat="42.84124" lon="-0.13877">
        <ele>1672.6168765262</ele>
        <time>2017-08-11T11:09:57Z</time>
      </trkpt>
      <trkpt lat="42.84118" lon="-0.13875">
        <ele>1673.0117513388</ele>
        <time>2017-08-11T11:10:02Z</time>
      </trkpt>
      <trkpt lat="42.8411" lon="-0.13875">
        <ele>1673.0117513388</ele>
        <time>2017-08-11T11:10:16Z</time>
      </trkpt>
      <trkpt lat="42.84098" lon="-0.13859">
        <ele>1673.8665652905</ele>
        <time>2017-08-11T11:11:04Z</time>
      </trkpt>
      <trkpt lat="42.84092" lon="-0.13854">
        <ele>1673.8665652905</ele>
        <time>2017-08-11T11:11:25Z</time>
      </trkpt>
      <trkpt lat="42.84087" lon="-0.13845">
        <ele>1675.4113886558</ele>
        <time>2017-08-11T11:13:09Z</time>
      </trkpt>
      <trkpt lat="42.84081" lon="-0.13842">
        <ele>1675.4113886558</ele>
        <time>2017-08-11T11:13:12Z</time>
      </trkpt>
      <trkpt lat="42.8408" lon="-0.13841">
        <ele>1675.4113886558</ele>
        <time>2017-08-11T11:13:12Z</time>
      </trkpt>
      <trkpt lat="42.84073" lon="-0.13842">
        <ele>1677.0549618076</ele>
        <time>2017-08-11T11:13:35Z</time>
      </trkpt>
      <trkpt lat="42.84064" lon="-0.13846">
        <ele>1678.6603033872</ele>
        <time>2017-08-11T11:13:44Z</time>
      </trkpt>
      <trkpt lat="42.84057" lon="-0.13847">
        <ele>1678.6603033872</ele>
        <time>2017-08-11T11:13:53Z</time>
      </trkpt>
      <trkpt lat="42.84051" lon="-0.1385">
        <ele>1680.1593374394</ele>
        <time>2017-08-11T11:14:00Z</time>
      </trkpt>
      <trkpt lat="42.84049" lon="-0.13851">
        <ele>1680.1593374394</ele>
        <time>2017-08-11T11:14:03Z</time>
      </trkpt>
      <trkpt lat="42.84046" lon="-0.13852">
        <ele>1680.1593374394</ele>
        <time>2017-08-11T11:14:14Z</time>
      </trkpt>
      <trkpt lat="42.84044" lon="-0.13851">
        <ele>1680.1593374394</ele>
        <time>2017-08-11T11:14:17Z</time>
      </trkpt>
      <trkpt lat="42.84038" lon="-0.1385">
        <ele>1681.5184270534</ele>
        <time>2017-08-11T11:14:30Z</time>
      </trkpt>
      <trkpt lat="42.84018" lon="-0.13849">
        <ele>1682.8081153326</ele>
        <time>2017-08-11T11:15:06Z</time>
      </trkpt>
      <trkpt lat="42.84018" lon="-0.1385">
        <ele>1682.8081153326</ele>
        <time>2017-08-11T11:15:07Z</time>
      </trkpt>
      <trkpt lat="42.83971" lon="-0.13858">
        <ele>1683.6302942876</ele>
        <time>2017-08-11T11:16:17Z</time>
      </trkpt>
      <trkpt lat="42.83966" lon="-0.13864">
        <ele>1683.6302942876</ele>
        <time>2017-08-11T11:16:43Z</time>
      </trkpt>
      <trkpt lat="42.83943" lon="-0.13864">
        <ele>1684.4861530213</ele>
        <time>2017-08-11T11:17:08Z</time>
      </trkpt>
      <trkpt lat="42.83924" lon="-0.13872">
        <ele>1685.2312703951</ele>
        <time>2017-08-11T11:17:35Z</time>
      </trkpt>
      <trkpt lat="42.83917" lon="-0.13875">
        <ele>1685.2312703951</ele>
        <time>2017-08-11T11:17:42Z</time>
      </trkpt>
      <trkpt lat="42.8387" lon="-0.1388">
        <ele>1686.0934098468</ele>
        <time>2017-08-11T11:18:49Z</time>
      </trkpt>
      <trkpt lat="42.83855" lon="-0.13876">
        <ele>1686.849601214</ele>
        <time>2017-08-11T11:19:12Z</time>
      </trkpt>
      <trkpt lat="42.83851" lon="-0.13873">
        <ele>1686.849601214</ele>
        <time>2017-08-11T11:19:17Z</time>
      </trkpt>
      <trkpt lat="42.83849" lon="-0.13872">
        <ele>1686.849601214</ele>
        <time>2017-08-11T11:19:22Z</time>
      </trkpt>
      <trkpt lat="42.83842" lon="-0.1387">
        <ele>1687.5679574516</ele>
        <time>2017-08-11T11:19:27Z</time>
      </trkpt>
      <trkpt lat="42.83836" lon="-0.13865">
        <ele>1687.5679574516</ele>
        <time>2017-08-11T11:19:37Z</time>
      </trkpt>
      <trkpt lat="42.83835" lon="-0.13865">
        <ele>1687.5679574516</ele>
        <time>2017-08-11T11:19:42Z</time>
      </trkpt>
      <trkpt lat="42.83831" lon="-0.13865">
        <ele>1688.1671814026</ele>
        <time>2017-08-11T11:19:47Z</time>
      </trkpt>
      <trkpt lat="42.83826" lon="-0.13865">
        <ele>1688.1671814026</ele>
        <time>2017-08-11T11:19:52Z</time>
      </trkpt>
      <trkpt lat="42.83822" lon="-0.13865">
        <ele>1688.1671814026</ele>
        <time>2017-08-11T11:19:57Z</time>
      </trkpt>
      <trkpt lat="42.8382" lon="-0.13863">
        <ele>1688.6875841526</ele>
        <time>2017-08-11T11:20:02Z</time>
      </trkpt>
      <trkpt lat="42.83818" lon="-0.13861">
        <ele>1688.6875841526</ele>
        <time>2017-08-11T11:20:07Z</time>
      </trkpt>
      <trkpt lat="42.83805" lon="-0.1385">
        <ele>1689.2963286243</ele>
        <time>2017-08-11T11:20:31Z</time>
      </trkpt>
      <trkpt lat="42.83796" lon="-0.13845">
        <ele>1689.9171338853</ele>
        <time>2017-08-11T11:20:53Z</time>
      </trkpt>
      <trkpt lat="42.83777" lon="-0.13838">
        <ele>1690.4791969939</ele>
        <time>2017-08-11T11:21:22Z</time>
      </trkpt>
      <trkpt lat="42.83764" lon="-0.13833">
        <ele>1691.0034688927</ele>
        <time>2017-08-11T11:21:55Z</time>
      </trkpt>
      <trkpt lat="42.8374" lon="-0.13834">
        <ele>1691.5093345834</ele>
        <time>2017-08-11T11:22:22Z</time>
      </trkpt>
      <trkpt lat="42.83732" lon="-0.1384">
        <ele>1691.9570096665</ele>
        <time>2017-08-11T11:22:35Z</time>
      </trkpt>
      <trkpt lat="42.83683" lon="-0.1383">
        <ele>1692.4394383726</ele>
        <time>2017-08-11T11:23:28Z</time>
      </trkpt>
      <trkpt lat="42.83678" lon="-0.13831">
        <ele>1692.4394383726</ele>
        <time>2017-08-11T11:23:44Z</time>
      </trkpt>
      <trkpt lat="42.83677" lon="-0.13833">
        <ele>1692.4394383726</ele>
        <time>2017-08-11T11:23:44Z</time>
      </trkpt>
      <trkpt lat="42.83673" lon="-0.1384">
        <ele>1692.8406607443</ele>
        <time>2017-08-11T11:24:02Z</time>
      </trkpt>
      <trkpt lat="42.83655" lon="-0.13832">
        <ele>1693.3128963843</ele>
        <time>2017-08-11T11:24:39Z</time>
      </trkpt>
      <trkpt lat="42.8365" lon="-0.13833">
        <ele>1693.3128963843</ele>
        <time>2017-08-11T11:24:39Z</time>
      </trkpt>
      <trkpt lat="42.83636" lon="-0.13841">
        <ele>1693.8094196302</ele>
        <time>2017-08-11T11:25:04Z</time>
      </trkpt>
      <trkpt lat="42.836" lon="-0.13864">
        <ele>1694.4309718049</ele>
        <time>2017-08-11T11:26:00Z</time>
      </trkpt>
      <trkpt lat="42.8358" lon="-0.13865">
        <ele>1695.097376912</ele>
        <time>2017-08-11T11:26:17Z</time>
      </trkpt>
      <trkpt lat="42.83579" lon="-0.13865">
        <ele>1695.097376912</ele>
        <time>2017-08-11T11:26:26Z</time>
      </trkpt>
      <trkpt lat="42.83577" lon="-0.13865">
        <ele>1695.097376912</ele>
        <time>2017-08-11T11:26:37Z</time>
      </trkpt>
      <trkpt lat="42.83551" lon="-0.13866">
        <ele>1695.9216130785</ele>
        <time>2017-08-11T11:27:24Z</time>
      </trkpt>
      <trkpt lat="42.83522" lon="-0.13874">
        <ele>1696.6905028911</ele>
        <time>2017-08-11T11:27:53Z</time>
      </trkpt>
      <trkpt lat="42.83504" lon="-0.13885">
        <ele>1697.4517938872</ele>
        <time>2017-08-11T11:28:19Z</time>
      </trkpt>
      <trkpt lat="42.83481" lon="-0.13905">
        <ele>1698.3939094032</ele>
        <time>2017-08-11T11:28:53Z</time>
      </trkpt>
      <trkpt lat="42.83462" lon="-0.13913">
        <ele>1699.4023499794</ele>
        <time>2017-08-11T11:29:18Z</time>
      </trkpt>
      <trkpt lat="42.83459" lon="-0.13914">
        <ele>1699.4023499794</ele>
        <time>2017-08-11T11:29:18Z</time>
      </trkpt>
      <trkpt lat="42.83452" lon="-0.13912">
        <ele>1700.3563487384</ele>
        <time>2017-08-11T11:29:58Z</time>
      </trkpt>
      <trkpt lat="42.83434" lon="-0.13906">
        <ele>1701.3316253928</ele>
        <time>2017-08-11T11:30:22Z</time>
      </trkpt>
      <trkpt lat="42.83421" lon="-0.13905">
        <ele>1702.2251263606</ele>
        <time>2017-08-11T11:30:41Z</time>
      </trkpt>
      <trkpt lat="42.83418" lon="-0.13905">
        <ele>1702.2251263606</ele>
        <time>2017-08-11T11:30:41Z</time>
      </trkpt>
      <trkpt lat="42.83417" lon="-0.13904">
        <ele>1702.2251263606</ele>
        <time>2017-08-11T11:30:42Z</time>
      </trkpt>
      <trkpt lat="42.83411" lon="-0.13902">
        <ele>1702.9992569661</ele>
        <time>2017-08-11T11:30:47Z</time>
      </trkpt>
      <trkpt lat="42.83399" lon="-0.13902">
        <ele>1703.7781346578</ele>
        <time>2017-08-11T11:31:20Z</time>
      </trkpt>
      <trkpt lat="42.83395" lon="-0.13897">
        <ele>1703.7781346578</ele>
        <time>2017-08-11T11:31:20Z</time>
      </trkpt>
      <trkpt lat="42.83356" lon="-0.13837">
        <ele>1704.7199492529</ele>
        <time>2017-08-11T11:33:05Z</time>
      </trkpt>
      <trkpt lat="42.83356" lon="-0.13833">
        <ele>1704.7199492529</ele>
        <time>2017-08-11T11:33:06Z</time>
      </trkpt>
      <trkpt lat="42.83357" lon="-0.13831">
        <ele>1704.7199492529</ele>
        <time>2017-08-11T11:33:17Z</time>
      </trkpt>
      <trkpt lat="42.83349" lon="-0.13809">
        <ele>1705.4804032865</ele>
        <time>2017-08-11T11:37:54Z</time>
      </trkpt>
      <trkpt lat="42.83353" lon="-0.1381">
        <ele>1705.4804032865</ele>
        <time>2017-08-11T11:38:28Z</time>
      </trkpt>
      <trkpt lat="42.83361" lon="-0.13821">
        <ele>1706.1015638117</ele>
        <time>2017-08-11T11:39:06Z</time>
      </trkpt>
      <trkpt lat="42.83362" lon="-0.13821">
        <ele>1706.1015638117</ele>
        <time>2017-08-11T11:39:07Z</time>
      </trkpt>
      <trkpt lat="42.83362" lon="-0.13821">
        <ele>1706.1015638117</ele>
        <time>2017-08-11T11:39:19Z</time>
      </trkpt>
      <trkpt lat="42.83362" lon="-0.1382">
        <ele>1706.1015638117</ele>
        <time>2017-08-11T11:50:08Z</time>
      </trkpt>
      <trkpt lat="42.83362" lon="-0.1382">
        <ele>1706.1015638117</ele>
        <time>2017-08-11T11:51:15Z</time>
      </trkpt>
      <trkpt lat="42.8336" lon="-0.13826">
        <ele>1706.1015638117</ele>
        <time>2017-08-11T11:55:50Z</time>
      </trkpt>
      <trkpt lat="42.83359" lon="-0.13826">
        <ele>1706.1015638117</ele>
        <time>2017-08-11T11:55:52Z</time>
      </trkpt>
      <trkpt lat="42.8337" lon="-0.13838">
        <ele>1706.5073965016</ele>
        <time>2017-08-11T11:57:16Z</time>
      </trkpt>
      <trkpt lat="42.83379" lon="-0.13859">
        <ele>1706.8154975893</ele>
        <time>2017-08-11T11:58:04Z</time>
      </trkpt>
      <trkpt lat="42.83383" lon="-0.13863">
        <ele>1706.8154975893</ele>
        <time>2017-08-11T11:58:04Z</time>
      </trkpt>
      <trkpt lat="42.83388" lon="-0.13869">
        <ele>1706.9764355175</ele>
        <time>2017-08-11T11:58:12Z</time>
      </trkpt>
      <trkpt lat="42.83397" lon="-0.13882">
        <ele>1707.0889819487</ele>
        <time>2017-08-11T11:58:30Z</time>
      </trkpt>
      <trkpt lat="42.83398" lon="-0.13882">
        <ele>1707.0889819487</ele>
        <time>2017-08-11T11:58:30Z</time>
      </trkpt>
      <trkpt lat="42.83404" lon="-0.13885">
        <ele>1707.0889819487</ele>
        <time>2017-08-11T11:58:45Z</time>
      </trkpt>
      <trkpt lat="42.83404" lon="-0.13884">
        <ele>1707.0889819487</ele>
        <time>2017-08-11T11:58:53Z</time>
      </trkpt>
      <trkpt lat="42.83421" lon="-0.13885">
        <ele>1707.1582298075</ele>
        <time>2017-08-11T11:59:56Z</time>
      </trkpt>
      <trkpt lat="42.83422" lon="-0.13897">
        <ele>1707.2610659491</ele>
        <time>2017-08-11T11:59:57Z</time>
      </trkpt>
      <trkpt lat="42.83423" lon="-0.13897">
        <ele>1707.2610659491</ele>
        <time>2017-08-11T12:00:08Z</time>
      </trkpt>
      <trkpt lat="42.83426" lon="-0.13902">
        <ele>1707.2610659491</ele>
        <time>2017-08-11T12:00:30Z</time>
      </trkpt>
      <trkpt lat="42.83425" lon="-0.13887">
        <ele>1707.3532552542</ele>
        <time>2017-08-11T12:01:05Z</time>
      </trkpt>
      <trkpt lat="42.83426" lon="-0.13901">
        <ele>1707.5956266281</ele>
        <time>2017-08-11T12:01:39Z</time>
      </trkpt>
      <trkpt lat="42.83441" lon="-0.13907">
        <ele>1707.7763384306</ele>
        <time>2017-08-11T12:02:26Z</time>
      </trkpt>
      <trkpt lat="42.83449" lon="-0.13912">
        <ele>1707.9010758467</ele>
        <time>2017-08-11T12:02:34Z</time>
      </trkpt>
      <trkpt lat="42.83458" lon="-0.13918">
        <ele>1707.989634579</ele>
        <time>2017-08-11T12:02:59Z</time>
      </trkpt>
      <trkpt lat="42.8346" lon="-0.13931">
        <ele>1708.0604129765</ele>
        <time>2017-08-11T12:03:00Z</time>
      </trkpt>
      <trkpt lat="42.83466" lon="-0.13936">
        <ele>1708.0604129765</ele>
        <time>2017-08-11T12:03:15Z</time>
      </trkpt>
      <trkpt lat="42.83471" lon="-0.13944">
        <ele>1708.1016372154</ele>
        <time>2017-08-11T12:03:15Z</time>
      </trkpt>
      <trkpt lat="42.83482" lon="-0.13956">
        <ele>1708.1168516549</ele>
        <time>2017-08-11T12:03:33Z</time>
      </trkpt>
      <trkpt lat="42.8349" lon="-0.13988">
        <ele>1708.1526056881</ele>
        <time>2017-08-11T12:04:04Z</time>
      </trkpt>
      <trkpt lat="42.83492" lon="-0.1399">
        <ele>1708.1526056881</ele>
        <time>2017-08-11T12:04:04Z</time>
      </trkpt>
      <trkpt lat="42.83497" lon="-0.13996">
        <ele>1708.1526056881</ele>
        <time>2017-08-11T12:04:12Z</time>
      </trkpt>
      <trkpt lat="42.83513" lon="-0.14026">
        <ele>1708.2519238603</ele>
        <time>2017-08-11T12:04:48Z</time>
      </trkpt>
      <trkpt lat="42.83517" lon="-0.14034">
        <ele>1708.2519238603</ele>
        <time>2017-08-11T12:04:48Z</time>
      </trkpt>
      <trkpt lat="42.83526" lon="-0.14039">
        <ele>1708.2959146296</ele>
        <time>2017-08-11T12:05:08Z</time>
      </trkpt>
      <trkpt lat="42.83531" lon="-0.14041">
        <ele>1708.2959146296</ele>
        <time>2017-08-11T12:05:08Z</time>
      </trkpt>
      <trkpt lat="42.83541" lon="-0.14045">
        <ele>1708.3474763384</ele>
        <time>2017-08-11T12:05:22Z</time>
      </trkpt>
      <trkpt lat="42.83548" lon="-0.14048">
        <ele>1708.3474763384</ele>
        <time>2017-08-11T12:05:42Z</time>
      </trkpt>
      <trkpt lat="42.83554" lon="-0.14052">
        <ele>1708.5080524698</ele>
        <time>2017-08-11T12:05:42Z</time>
      </trkpt>
      <trkpt lat="42.83566" lon="-0.14064">
        <ele>1708.7559901516</ele>
        <time>2017-08-11T12:06:00Z</time>
      </trkpt>
      <trkpt lat="42.8357" lon="-0.14072">
        <ele>1708.7559901516</ele>
        <time>2017-08-11T12:06:00Z</time>
      </trkpt>
      <trkpt lat="42.83583" lon="-0.14093">
        <ele>1709.402401807</ele>
        <time>2017-08-11T12:06:22Z</time>
      </trkpt>
      <trkpt lat="42.83594" lon="-0.14096">
        <ele>1710.2732224332</ele>
        <time>2017-08-11T12:06:38Z</time>
      </trkpt>
      <trkpt lat="42.83614" lon="-0.14111">
        <ele>1711.7253191904</ele>
        <time>2017-08-11T12:07:19Z</time>
      </trkpt>
      <trkpt lat="42.83621" lon="-0.14114">
        <ele>1711.7253191904</ele>
        <time>2017-08-11T12:07:19Z</time>
      </trkpt>
      <trkpt lat="42.83629" lon="-0.14119">
        <ele>1713.4103563618</ele>
        <time>2017-08-11T12:07:32Z</time>
      </trkpt>
      <trkpt lat="42.83669" lon="-0.14142">
        <ele>1715.1634421618</ele>
        <time>2017-08-11T12:08:12Z</time>
      </trkpt>
      <trkpt lat="42.83672" lon="-0.14142">
        <ele>1715.1634421618</ele>
        <time>2017-08-11T12:08:19Z</time>
      </trkpt>
      <trkpt lat="42.83673" lon="-0.14141">
        <ele>1715.1634421618</ele>
        <time>2017-08-11T12:08:28Z</time>
      </trkpt>
      <trkpt lat="42.83682" lon="-0.14147">
        <ele>1716.9901244646</ele>
        <time>2017-08-11T12:08:47Z</time>
      </trkpt>
      <trkpt lat="42.8369" lon="-0.14148">
        <ele>1716.9901244646</ele>
        <time>2017-08-11T12:09:02Z</time>
      </trkpt>
      <trkpt lat="42.83691" lon="-0.14148">
        <ele>1718.7224070363</ele>
        <time>2017-08-11T12:09:02Z</time>
      </trkpt>
      <trkpt lat="42.83759" lon="-0.14188">
        <ele>1720.2337373972</ele>
        <time>2017-08-11T12:10:26Z</time>
      </trkpt>
      <trkpt lat="42.83786" lon="-0.142">
        <ele>1721.6524968315</ele>
        <time>2017-08-11T12:11:00Z</time>
      </trkpt>
      <trkpt lat="42.83789" lon="-0.14201">
        <ele>1721.6524968315</ele>
        <time>2017-08-11T12:11:05Z</time>
      </trkpt>
      <trkpt lat="42.83842" lon="-0.14222">
        <ele>1723.227632369</ele>
        <time>2017-08-11T12:12:03Z</time>
      </trkpt>
      <trkpt lat="42.83855" lon="-0.1423">
        <ele>1724.6417750004</ele>
        <time>2017-08-11T12:12:21Z</time>
      </trkpt>
      <trkpt lat="42.83861" lon="-0.14233">
        <ele>1724.6417750004</ele>
        <time>2017-08-11T12:12:21Z</time>
      </trkpt>
      <trkpt lat="42.83861" lon="-0.14233">
        <ele>1724.6417750004</ele>
        <time>2017-08-11T12:12:22Z</time>
      </trkpt>
      <trkpt lat="42.8387" lon="-0.14237">
        <ele>1725.9328284545</ele>
        <time>2017-08-11T12:12:33Z</time>
      </trkpt>
      <trkpt lat="42.83885" lon="-0.14241">
        <ele>1727.3524806246</ele>
        <time>2017-08-11T12:12:52Z</time>
      </trkpt>
      <trkpt lat="42.83898" lon="-0.14243">
        <ele>1728.7301061524</ele>
        <time>2017-08-11T12:13:16Z</time>
      </trkpt>
      <trkpt lat="42.83966" lon="-0.14273">
        <ele>1730.6860100166</ele>
        <time>2017-08-11T12:14:25Z</time>
      </trkpt>
      <trkpt lat="42.83977" lon="-0.14279">
        <ele>1732.4963407515</ele>
        <time>2017-08-11T12:14:25Z</time>
      </trkpt>
      <trkpt lat="42.84019" lon="-0.14298">
        <ele>1734.4708785636</ele>
        <time>2017-08-11T12:15:13Z</time>
      </trkpt>
      <trkpt lat="42.84025" lon="-0.14301">
        <ele>1734.4708785636</ele>
        <time>2017-08-11T12:15:13Z</time>
      </trkpt>
      <trkpt lat="42.84041" lon="-0.14316">
        <ele>1736.3918601829</ele>
        <time>2017-08-11T12:15:34Z</time>
      </trkpt>
      <trkpt lat="42.84065" lon="-0.1434">
        <ele>1738.288334347</ele>
        <time>2017-08-11T12:16:08Z</time>
      </trkpt>
      <trkpt lat="42.84073" lon="-0.14348">
        <ele>1740.0288440709</ele>
        <time>2017-08-11T12:16:16Z</time>
      </trkpt>
      <trkpt lat="42.84095" lon="-0.14361">
        <ele>1741.722700269</ele>
        <time>2017-08-11T12:16:42Z</time>
      </trkpt>
      <trkpt lat="42.84121" lon="-0.14363">
        <ele>1743.4281724126</ele>
        <time>2017-08-11T12:17:13Z</time>
      </trkpt>
      <trkpt lat="42.84132" lon="-0.14362">
        <ele>1745.0119617531</ele>
        <time>2017-08-11T12:17:13Z</time>
      </trkpt>
      <trkpt lat="42.8418" lon="-0.14363">
        <ele>1746.3221749966</ele>
        <time>2017-08-11T12:18:08Z</time>
      </trkpt>
      <trkpt lat="42.84188" lon="-0.14364">
        <ele>1746.3221749966</ele>
        <time>2017-08-11T12:18:39Z</time>
      </trkpt>
      <trkpt lat="42.84247" lon="-0.14381">
        <ele>1748.184504876</ele>
        <time>2017-08-11T12:19:08Z</time>
      </trkpt>
      <trkpt lat="42.84261" lon="-0.14384">
        <ele>1750.0366810916</ele>
        <time>2017-08-11T12:19:25Z</time>
      </trkpt>
      <trkpt lat="42.84268" lon="-0.14384">
        <ele>1750.0366810916</ele>
        <time>2017-08-11T12:19:25Z</time>
      </trkpt>
      <trkpt lat="42.8431" lon="-0.14397">
        <ele>1752.0640216261</ele>
        <time>2017-08-11T12:20:10Z</time>
      </trkpt>
      <trkpt lat="42.84329" lon="-0.14412">
        <ele>1753.9622592348</ele>
        <time>2017-08-11T12:20:25Z</time>
      </trkpt>
      <trkpt lat="42.84366" lon="-0.14429">
        <ele>1755.7813996118</ele>
        <time>2017-08-11T12:20:48Z</time>
      </trkpt>
      <trkpt lat="42.84367" lon="-0.14425">
        <ele>1755.7813996118</ele>
        <time>2017-08-11T12:21:04Z</time>
      </trkpt>
      <trkpt lat="42.84368" lon="-0.14424">
        <ele>1755.7813996118</ele>
        <time>2017-08-11T12:21:04Z</time>
      </trkpt>
      <trkpt lat="42.8438" lon="-0.14423">
        <ele>1757.7986756795</ele>
        <time>2017-08-11T12:21:21Z</time>
      </trkpt>
      <trkpt lat="42.84393" lon="-0.14427">
        <ele>1759.6652213793</ele>
        <time>2017-08-11T12:21:39Z</time>
      </trkpt>
      <trkpt lat="42.84401" lon="-0.14435">
        <ele>1761.346546821</ele>
        <time>2017-08-11T12:21:39Z</time>
      </trkpt>
      <trkpt lat="42.84414" lon="-0.1444">
        <ele>1762.8545463941</ele>
        <time>2017-08-11T12:21:52Z</time>
      </trkpt>
      <trkpt lat="42.84424" lon="-0.14445">
        <ele>1764.171999233</ele>
        <time>2017-08-11T12:21:55Z</time>
      </trkpt>
      <trkpt lat="42.84453" lon="-0.14462">
        <ele>1765.4420987904</ele>
        <time>2017-08-11T12:22:30Z</time>
      </trkpt>
      <trkpt lat="42.84462" lon="-0.14465">
        <ele>1766.581569894</ele>
        <time>2017-08-11T12:22:30Z</time>
      </trkpt>
      <trkpt lat="42.84506" lon="-0.14496">
        <ele>1767.7731037246</ele>
        <time>2017-08-11T12:23:08Z</time>
      </trkpt>
      <trkpt lat="42.84543" lon="-0.14509">
        <ele>1768.8688528264</ele>
        <time>2017-08-11T12:23:47Z</time>
      </trkpt>
      <trkpt lat="42.84544" lon="-0.14524">
        <ele>1769.3718876544</ele>
        <time>2017-08-11T12:24:44Z</time>
      </trkpt>
      <trkpt lat="42.84537" lon="-0.14524">
        <ele>1769.3718876544</ele>
        <time>2017-08-11T12:27:14Z</time>
      </trkpt>
      <trkpt lat="42.84535" lon="-0.14523">
        <ele>1767.9732441949</ele>
        <time>2017-08-11T12:27:14Z</time>
      </trkpt>
      <trkpt lat="42.84465" lon="-0.14471">
        <ele>1765.4254082534</ele>
        <time>2017-08-11T12:28:30Z</time>
      </trkpt>
      <trkpt lat="42.8446" lon="-0.14461">
        <ele>1765.4254082534</ele>
        <time>2017-08-11T12:28:30Z</time>
      </trkpt>
      <trkpt lat="42.84415" lon="-0.14434">
        <ele>1762.0541362127</ele>
        <time>2017-08-11T12:29:03Z</time>
      </trkpt>
      <trkpt lat="42.84394" lon="-0.14415">
        <ele>1758.5094168096</ele>
        <time>2017-08-11T12:29:29Z</time>
      </trkpt>
      <trkpt lat="42.84389" lon="-0.14403">
        <ele>1755.0048270325</ele>
        <time>2017-08-11T12:29:29Z</time>
      </trkpt>
      <trkpt lat="42.8438" lon="-0.14393">
        <ele>1751.3921904565</ele>
        <time>2017-08-11T12:29:38Z</time>
      </trkpt>
      <trkpt lat="42.84314" lon="-0.14338">
        <ele>1744.9980373813</ele>
        <time>2017-08-11T12:30:48Z</time>
      </trkpt>
      <trkpt lat="42.84299" lon="-0.1433">
        <ele>1738.9732710128</ele>
        <time>2017-08-11T12:31:34Z</time>
      </trkpt>
      <trkpt lat="42.84287" lon="-0.14325">
        <ele>1733.3250435164</ele>
        <time>2017-08-11T12:31:35Z</time>
      </trkpt>
      <trkpt lat="42.84281" lon="-0.14321">
        <ele>1733.3250435164</ele>
        <time>2017-08-11T12:31:42Z</time>
      </trkpt>
      <trkpt lat="42.84266" lon="-0.14298">
        <ele>1727.9722158971</ele>
        <time>2017-08-11T12:32:00Z</time>
      </trkpt>
      <trkpt lat="42.84298" lon="-0.14275">
        <ele>1722.5502770656</ele>
        <time>2017-08-11T12:32:42Z</time>
      </trkpt>
      <trkpt lat="42.84322" lon="-0.14269">
        <ele>1717.2545837207</ele>
        <time>2017-08-11T12:33:03Z</time>
      </trkpt>
      <trkpt lat="42.84368" lon="-0.14277">
        <ele>1711.8475222119</ele>
        <time>2017-08-11T12:33:40Z</time>
      </trkpt>
      <trkpt lat="42.84401" lon="-0.14279">
        <ele>1705.6044877757</ele>
        <time>2017-08-11T12:34:08Z</time>
      </trkpt>
      <trkpt lat="42.84411" lon="-0.14276">
        <ele>1699.2971680737</ele>
        <time>2017-08-11T12:34:09Z</time>
      </trkpt>
      <trkpt lat="42.84455" lon="-0.14254">
        <ele>1692.0551012725</ele>
        <time>2017-08-11T12:34:51Z</time>
      </trkpt>
      <trkpt lat="42.84484" lon="-0.14246">
        <ele>1684.7600487399</ele>
        <time>2017-08-11T12:35:09Z</time>
      </trkpt>
      <trkpt lat="42.84538" lon="-0.14235">
        <ele>1677.3063658173</ele>
        <time>2017-08-11T12:35:52Z</time>
      </trkpt>
      <trkpt lat="42.84563" lon="-0.14237">
        <ele>1670.0428650888</ele>
        <time>2017-08-11T12:36:13Z</time>
      </trkpt>
      <trkpt lat="42.84573" lon="-0.14234">
        <ele>1663.3781546207</ele>
        <time>2017-08-11T12:36:33Z</time>
      </trkpt>
      <trkpt lat="42.84579" lon="-0.14225">
        <ele>1657.0545264237</ele>
        <time>2017-08-11T12:36:33Z</time>
      </trkpt>
      <trkpt lat="42.84587" lon="-0.14209">
        <ele>1651.0190493838</ele>
        <time>2017-08-11T12:36:45Z</time>
      </trkpt>
      <trkpt lat="42.84587" lon="-0.14207">
        <ele>1651.0190493838</ele>
        <time>2017-08-11T12:36:50Z</time>
      </trkpt>
      <trkpt lat="42.84598" lon="-0.14198">
        <ele>1645.0483907337</ele>
        <time>2017-08-11T12:37:02Z</time>
      </trkpt>
      <trkpt lat="42.84609" lon="-0.1416">
        <ele>1638.4449124845</ele>
        <time>2017-08-11T12:37:37Z</time>
      </trkpt>
      <trkpt lat="42.84672" lon="-0.14139">
        <ele>1630.4769791667</ele>
        <time>2017-08-11T12:38:38Z</time>
      </trkpt>
      <trkpt lat="42.84708" lon="-0.14127">
        <ele>1623.9286435512</ele>
        <time>2017-08-11T12:39:10Z</time>
      </trkpt>
      <trkpt lat="42.84713" lon="-0.14121">
        <ele>1623.9286435512</ele>
        <time>2017-08-11T12:39:15Z</time>
      </trkpt>
      <trkpt lat="42.84714" lon="-0.1412">
        <ele>1623.9286435512</ele>
        <time>2017-08-11T12:39:19Z</time>
      </trkpt>
      <trkpt lat="42.84744" lon="-0.14072">
        <ele>1617.2965551612</ele>
        <time>2017-08-11T12:39:53Z</time>
      </trkpt>
      <trkpt lat="42.84745" lon="-0.1407">
        <ele>1617.2965551612</ele>
        <time>2017-08-11T12:39:57Z</time>
      </trkpt>
      <trkpt lat="42.84745" lon="-0.1407">
        <ele>1617.2965551612</ele>
        <time>2017-08-11T12:40:02Z</time>
      </trkpt>
      <trkpt lat="42.84747" lon="-0.14067">
        <ele>1617.2965551612</ele>
        <time>2017-08-11T12:40:07Z</time>
      </trkpt>
      <trkpt lat="42.84761" lon="-0.14053">
        <ele>1610.6141774076</ele>
        <time>2017-08-11T12:40:33Z</time>
      </trkpt>
      <trkpt lat="42.84769" lon="-0.14039">
        <ele>1604.0273895704</ele>
        <time>2017-08-11T12:40:46Z</time>
      </trkpt>
      <trkpt lat="42.84775" lon="-0.14036">
        <ele>1604.0273895704</ele>
        <time>2017-08-11T12:40:50Z</time>
      </trkpt>
      <trkpt lat="42.84795" lon="-0.1403">
        <ele>1597.7425918842</ele>
        <time>2017-08-11T12:41:02Z</time>
      </trkpt>
      <trkpt lat="42.84807" lon="-0.14032">
        <ele>1592.2090339483</ele>
        <time>2017-08-11T12:41:17Z</time>
      </trkpt>
      <trkpt lat="42.84851" lon="-0.14072">
        <ele>1586.1830457258</ele>
        <time>2017-08-11T12:42:00Z</time>
      </trkpt>
      <trkpt lat="42.84859" lon="-0.14178">
        <ele>1578.9599226276</ele>
        <time>2017-08-11T12:43:00Z</time>
      </trkpt>
      <trkpt lat="42.84864" lon="-0.14205">
        <ele>1571.7197890217</ele>
        <time>2017-08-11T12:43:19Z</time>
      </trkpt>
      <trkpt lat="42.84873" lon="-0.14189">
        <ele>1564.7630139891</ele>
        <time>2017-08-11T12:43:33Z</time>
      </trkpt>
      <trkpt lat="42.84893" lon="-0.14187">
        <ele>1557.5307690115</ele>
        <time>2017-08-11T12:44:35Z</time>
      </trkpt>
      <trkpt lat="42.84905" lon="-0.14238">
        <ele>1550.687276489</ele>
        <time>2017-08-11T12:44:57Z</time>
      </trkpt>
      <trkpt lat="42.84909" lon="-0.14252">
        <ele>1544.5437660092</ele>
        <time>2017-08-11T12:45:08Z</time>
      </trkpt>
      <trkpt lat="42.84921" lon="-0.14299">
        <ele>1538.4926884092</ele>
        <time>2017-08-11T12:45:34Z</time>
      </trkpt>
      <trkpt lat="42.84921" lon="-0.14308">
        <ele>1538.4926884092</ele>
        <time>2017-08-11T12:45:40Z</time>
      </trkpt>
      <trkpt lat="42.8494" lon="-0.14349">
        <ele>1532.1865839363</ele>
        <time>2017-08-11T12:46:12Z</time>
      </trkpt>
      <trkpt lat="42.84948" lon="-0.14364">
        <ele>1526.6296248945</ele>
        <time>2017-08-11T12:46:38Z</time>
      </trkpt>
      <trkpt lat="42.8498" lon="-0.14355">
        <ele>1521.6544604897</ele>
        <time>2017-08-11T12:47:04Z</time>
      </trkpt>
      <trkpt lat="42.85" lon="-0.14335">
        <ele>1516.9599021899</ele>
        <time>2017-08-11T12:47:29Z</time>
      </trkpt>
      <trkpt lat="42.85004" lon="-0.14326">
        <ele>1516.9599021899</ele>
        <time>2017-08-11T12:47:29Z</time>
      </trkpt>
      <trkpt lat="42.85009" lon="-0.14314">
        <ele>1512.7268927114</ele>
        <time>2017-08-11T12:47:37Z</time>
      </trkpt>
      <trkpt lat="42.85021" lon="-0.14296">
        <ele>1508.8476427816</ele>
        <time>2017-08-11T12:47:56Z</time>
      </trkpt>
      <trkpt lat="42.85022" lon="-0.14292">
        <ele>1508.8476427816</ele>
        <time>2017-08-11T12:47:58Z</time>
      </trkpt>
      <trkpt lat="42.85061" lon="-0.14241">
        <ele>1504.5436617483</ele>
        <time>2017-08-11T12:48:57Z</time>
      </trkpt>
      <trkpt lat="42.8508" lon="-0.14239">
        <ele>1500.6797867281</ele>
        <time>2017-08-11T12:49:28Z</time>
      </trkpt>
      <trkpt lat="42.85095" lon="-0.14216">
        <ele>1497.248823528</ele>
        <time>2017-08-11T12:49:48Z</time>
      </trkpt>
      <trkpt lat="42.85103" lon="-0.1419">
        <ele>1493.8535784527</ele>
        <time>2017-08-11T12:50:08Z</time>
      </trkpt>
      <trkpt lat="42.85091" lon="-0.1416">
        <ele>1490.961597369</ele>
        <time>2017-08-11T12:50:40Z</time>
      </trkpt>
      <trkpt lat="42.85118" lon="-0.14089">
        <ele>1487.9092719074</ele>
        <time>2017-08-11T12:51:47Z</time>
      </trkpt>
      <trkpt lat="42.85133" lon="-0.14044">
        <ele>1484.4855810083</ele>
        <time>2017-08-11T12:52:17Z</time>
      </trkpt>
      <trkpt lat="42.85134" lon="-0.14034">
        <ele>1484.4855810083</ele>
        <time>2017-08-11T12:52:34Z</time>
      </trkpt>
      <trkpt lat="42.85134" lon="-0.14034">
        <ele>1484.4855810083</ele>
        <time>2017-08-11T12:52:39Z</time>
      </trkpt>
      <trkpt lat="42.85132" lon="-0.14018">
        <ele>1481.0579864474</ele>
        <time>2017-08-11T12:52:56Z</time>
      </trkpt>
      <trkpt lat="42.85132" lon="-0.14017">
        <ele>1481.0579864474</ele>
        <time>2017-08-11T12:52:57Z</time>
      </trkpt>
      <trkpt lat="42.85131" lon="-0.14004">
        <ele>1478.2551226588</ele>
        <time>2017-08-11T12:53:12Z</time>
      </trkpt>
      <trkpt lat="42.85131" lon="-0.13996">
        <ele>1478.2551226588</ele>
        <time>2017-08-11T12:53:12Z</time>
      </trkpt>
      <trkpt lat="42.85127" lon="-0.13985">
        <ele>1476.0812066546</ele>
        <time>2017-08-11T12:53:30Z</time>
      </trkpt>
      <trkpt lat="42.85128" lon="-0.13988">
        <ele>1476.0812066546</ele>
        <time>2017-08-11T12:53:41Z</time>
      </trkpt>
      <trkpt lat="42.85132" lon="-0.13994">
        <ele>1476.0812066546</ele>
        <time>2017-08-11T12:53:50Z</time>
      </trkpt>
      <trkpt lat="42.85115" lon="-0.13986">
        <ele>1474.5671893829</ele>
        <time>2017-08-11T12:54:02Z</time>
      </trkpt>
      <trkpt lat="42.851" lon="-0.13961">
        <ele>1473.6822677727</ele>
        <time>2017-08-11T12:54:25Z</time>
      </trkpt>
      <trkpt lat="42.85096" lon="-0.13948">
        <ele>1473.2520730957</ele>
        <time>2017-08-11T12:54:28Z</time>
      </trkpt>
      <trkpt lat="42.85092" lon="-0.13914">
        <ele>1473.1570851792</ele>
        <time>2017-08-11T12:54:57Z</time>
      </trkpt>
      <trkpt lat="42.85091" lon="-0.13907">
        <ele>1473.1570851792</ele>
        <time>2017-08-11T12:54:57Z</time>
      </trkpt>
      <trkpt lat="42.85094" lon="-0.13857">
        <ele>1473.0263400024</ele>
        <time>2017-08-11T12:55:27Z</time>
      </trkpt>
      <trkpt lat="42.85091" lon="-0.13813">
        <ele>1472.6893087108</ele>
        <time>2017-08-11T12:56:00Z</time>
      </trkpt>
      <trkpt lat="42.85111" lon="-0.13822">
        <ele>1472.5075510467</ele>
        <time>2017-08-11T12:56:16Z</time>
      </trkpt>
      <trkpt lat="42.85137" lon="-0.13827">
        <ele>1472.5564435099</ele>
        <time>2017-08-11T12:56:55Z</time>
      </trkpt>
      <trkpt lat="42.85139" lon="-0.13824">
        <ele>1472.5564435099</ele>
        <time>2017-08-11T12:56:57Z</time>
      </trkpt>
      <trkpt lat="42.8514" lon="-0.13805">
        <ele>1472.8333625986</ele>
        <time>2017-08-11T12:57:21Z</time>
      </trkpt>
      <trkpt lat="42.85152" lon="-0.13788">
        <ele>1473.1481584584</ele>
        <time>2017-08-11T12:57:21Z</time>
      </trkpt>
      <trkpt lat="42.85174" lon="-0.1375">
        <ele>1473.180720586</ele>
        <time>2017-08-11T12:57:51Z</time>
      </trkpt>
      <trkpt lat="42.85178" lon="-0.13742">
        <ele>1473.180720586</ele>
        <time>2017-08-11T12:57:51Z</time>
      </trkpt>
      <trkpt lat="42.85196" lon="-0.13582">
        <ele>1471.7420631956</ele>
        <time>2017-08-11T12:59:57Z</time>
      </trkpt>
    </trkseg>
  </trk>
</gpx>